Aviation Digital Data Service (ADDS)

Output produced by METARs form (2249 UTC 15 February 2019)
found at http://www.aviationweather.gov/metar/data/
 
Forecast for: VTCT (CHIANG RAI INTL , TH)
Text: TAF VTCT 151700Z 1518/1624 24005KT 9999 FEW025
Forecast period: 1800 to 2100 UTC 15 February 2019
Forecast type: FROM: standard forecast or significant change
Winds: from the WSW (240 degrees) at 6 MPH (5 knots; 2.6 m/s)
Visibility: 6 or more miles 10+ km)
Ceiling: at least 12,000 feet AGL
Clouds: few clouds at 2500 feet AGL
Weather: no significant weather forecast for this period
Text: BECMG 1521/1523 3000 BR
Forecast period: 2100 UTC 15 February 2019 to 0100 UTC 16 February 2019
Forecast type: BECOMING: Conditions expected to become as follows by 2300 UTC 15 February 2019
Winds: from the WSW (240 degrees) at 6 MPH (5 knots; 2.6 m/s)
Visibility: 1.86 miles (2.99 km)
Ceiling: at least 12,000 feet AGL
Clouds: few clouds at 2500 feet AGL
Weather: BR  (mist)
Text: BECMG 1601/1603 7000 NSW
Forecast period: 0100 UTC 16 February 2019 to 0000 UTC 17 February 2019
Forecast type: BECOMING: Conditions expected to become as follows by 0300 UTC 16 February 2019
Winds: from the WSW (240 degrees) at 6 MPH (5 knots; 2.6 m/s)
Visibility: 4 miles (7 km)
Ceiling: at least 12,000 feet AGL
Clouds: few clouds at 2500 feet AGL
Weather: NSW  (no significant weather)